sensor_id;sensor_type;location;lat;lon;timestamp;temperature;humidity
44487;DHT22;30191;50.908;6.962;2023-04-15T00:01:04;10.80;99.90
44487;DHT22;30191;50.908;6.962;2023-04-15T00:03:30;10.90;99.90
44487;DHT22;30191;50.908;6.962;2023-04-15T00:05:56;10.80;99.90
44487;DHT22;30191;50.908;6.962;2023-04-15T00:08:22;10.80;99.90
44487;DHT22;30191;50.908;6.962;2023-04-15T00:10:48;10.80;99.90
44487;DHT22;30191;50.908;6.962;2023-04-15T00:13:13;10.90;99.90
44487;DHT22;30191;50.908;6.962;2023-04-15T00:15:39;10.90;99.90
44487;DHT22;30191;50.908;6.962;2023-04-15T00:18:05;10.90;99.90
44487;DHT22;30191;50.908;6.962;2023-04-15T00:20:32;10.90;99.90
44487;DHT22;30191;50.908;6.962;2023-04-15T00:22:58;11.00;99.90
44487;DHT22;30191;50.908;6.962;2023-04-15T00:25:24;10.90;99.90
44487;DHT22;30191;50.908;6.962;2023-04-15T00:27:50;10.80;99.90
44487;DHT22;30191;50.908;6.962;2023-04-15T00:30:15;10.80;99.90
44487;DHT22;30191;50.908;6.962;2023-04-15T00:32:41;10.90;99.90
44487;DHT22;30191;50.908;6.962;2023-04-15T00:35:07;10.80;99.90
44487;DHT22;30191;50.908;6.962;2023-04-15T00:37:33;10.60;99.90
44487;DHT22;30191;50.908;6.962;2023-04-15T00:39:59;10.60;99.90
44487;DHT22;30191;50.908;6.962;2023-04-15T00:42:25;10.50;99.90
44487;DHT22;30191;50.908;6.962;2023-04-15T00:44:50;10.30;99.90
44487;DHT22;30191;50.908;6.962;2023-04-15T00:47:16;10.20;99.90
44487;DHT22;30191;50.908;6.962;2023-04-15T00:49:42;10.30;99.90
44487;DHT22;30191;50.908;6.962;2023-04-15T00:52:07;10.40;99.90
44487;DHT22;30191;50.908;6.962;2023-04-15T00:54:33;10.30;99.90
44487;DHT22;30191;50.908;6.962;2023-04-15T00:56:58;10.20;99.90
44487;DHT22;30191;50.908;6.962;2023-04-15T00:59:24;10.20;99.90
44487;DHT22;30191;50.908;6.962;2023-04-15T01:01:50;10.20;99.90
44487;DHT22;30191;50.908;6.962;2023-04-15T01:04:16;10.10;99.90
44487;DHT22;30191;50.908;6.962;2023-04-15T01:06:42;10.20;99.90
44487;DHT22;30191;50.908;6.962;2023-04-15T01:09:07;10.10;99.90
44487;DHT22;30191;50.908;6.962;2023-04-15T01:11:33;9.90;99.90
44487;DHT22;30191;50.908;6.962;2023-04-15T01:13:59;9.90;99.90
44487;DHT22;30191;50.908;6.962;2023-04-15T01:16:24;9.90;99.90
44487;DHT22;30191;50.908;6.962;2023-04-15T01:18:50;9.90;99.90
44487;DHT22;30191;50.908;6.962;2023-04-15T01:21:16;9.80;99.90
44487;DHT22;30191;50.908;6.962;2023-04-15T01:23:42;9.80;99.90
44487;DHT22;30191;50.908;6.962;2023-04-15T01:26:08;9.70;99.90
44487;DHT22;30191;50.908;6.962;2023-04-15T01:28:34;9.70;99.90
44487;DHT22;30191;50.908;6.962;2023-04-15T01:31:13;9.70;99.90
44487;DHT22;30191;50.908;6.962;2023-04-15T01:33:39;9.80;99.90
44487;DHT22;30191;50.908;6.962;2023-04-15T01:36:05;9.90;99.90
44487;DHT22;30191;50.908;6.962;2023-04-15T01:38:32;9.90;99.90
44487;DHT22;30191;50.908;6.962;2023-04-15T01:40:58;10.00;99.90
44487;DHT22;30191;50.908;6.962;2023-04-15T01:43:24;10.10;99.90
44487;DHT22;30191;50.908;6.962;2023-04-15T01:45:49;10.00;99.90
44487;DHT22;30191;50.908;6.962;2023-04-15T01:48:15;9.90;99.90
44487;DHT22;30191;50.908;6.962;2023-04-15T01:50:41;9.90;99.90
44487;DHT22;30191;50.908;6.962;2023-04-15T01:53:07;9.90;99.90
44487;DHT22;30191;50.908;6.962;2023-04-15T01:55:33;9.90;99.90
44487;DHT22;30191;50.908;6.962;2023-04-15T01:57:58;9.70;99.90
44487;DHT22;30191;50.908;6.962;2023-04-15T02:00:24;9.70;99.90
44487;DHT22;30191;50.908;6.962;2023-04-15T02:02:49;9.60;99.90
44487;DHT22;30191;50.908;6.962;2023-04-15T02:05:15;9.60;99.90
44487;DHT22;30191;50.908;6.962;2023-04-15T02:07:41;9.60;99.90
44487;DHT22;30191;50.908;6.962;2023-04-15T02:10:07;9.50;99.90
44487;DHT22;30191;50.908;6.962;2023-04-15T02:12:33;9.40;99.90
44487;DHT22;30191;50.908;6.962;2023-04-15T02:14:59;9.40;99.90
44487;DHT22;30191;50.908;6.962;2023-04-15T02:17:24;9.40;99.90
44487;DHT22;30191;50.908;6.962;2023-04-15T02:19:50;9.40;99.90
44487;DHT22;30191;50.908;6.962;2023-04-15T02:22:15;9.50;99.90
44487;DHT22;30191;50.908;6.962;2023-04-15T02:24:42;9.50;99.90
44487;DHT22;30191;50.908;6.962;2023-04-15T02:27:08;9.60;99.90
44487;DHT22;30191;50.908;6.962;2023-04-15T02:29:34;9.60;99.90
44487;DHT22;30191;50.908;6.962;2023-04-15T02:31:59;9.60;99.90
44487;DHT22;30191;50.908;6.962;2023-04-15T02:34:25;9.70;99.90
44487;DHT22;30191;50.908;6.962;2023-04-15T02:36:51;9.70;99.90
44487;DHT22;30191;50.908;6.962;2023-04-15T02:39:21;9.70;99.90
44487;DHT22;30191;50.908;6.962;2023-04-15T02:41:47;9.70;99.90
44487;DHT22;30191;50.908;6.962;2023-04-15T02:44:16;9.60;99.90
44487;DHT22;30191;50.908;6.962;2023-04-15T02:46:44;9.40;99.90
44487;DHT22;30191;50.908;6.962;2023-04-15T02:49:15;9.30;99.90
44487;DHT22;30191;50.908;6.962;2023-04-15T02:51:40;9.30;99.90
44487;DHT22;30191;50.908;6.962;2023-04-15T02:54:06;9.20;99.90
44487;DHT22;30191;50.908;6.962;2023-04-15T02:56:33;9.20;99.90
44487;DHT22;30191;50.908;6.962;2023-04-15T02:58:58;9.20;99.90
44487;DHT22;30191;50.908;6.962;2023-04-15T03:01:24;9.30;99.90
44487;DHT22;30191;50.908;6.962;2023-04-15T03:03:50;9.40;99.90
44487;DHT22;30191;50.908;6.962;2023-04-15T03:06:16;9.40;99.90
44487;DHT22;30191;50.908;6.962;2023-04-15T03:08:41;9.40;99.90
44487;DHT22;30191;50.908;6.962;2023-04-15T03:11:07;9.30;99.90
44487;DHT22;30191;50.908;6.962;2023-04-15T03:13:32;9.40;99.90
44487;DHT22;30191;50.908;6.962;2023-04-15T03:15:58;9.20;99.90
44487;DHT22;30191;50.908;6.962;2023-04-15T03:18:23;9.20;99.90
44487;DHT22;30191;50.908;6.962;2023-04-15T03:20:49;9.20;99.90
44487;DHT22;30191;50.908;6.962;2023-04-15T03:23:15;9.20;99.90
44487;DHT22;30191;50.908;6.962;2023-04-15T03:25:41;9.20;99.90
44487;DHT22;30191;50.908;6.962;2023-04-15T03:28:06;9.10;99.90
44487;DHT22;30191;50.908;6.962;2023-04-15T03:30:32;9.00;99.90
44487;DHT22;30191;50.908;6.962;2023-04-15T03:32:57;9.00;99.90
44487;DHT22;30191;50.908;6.962;2023-04-15T03:35:23;9.10;99.90
44487;DHT22;30191;50.908;6.962;2023-04-15T03:37:48;9.20;99.90
44487;DHT22;30191;50.908;6.962;2023-04-15T03:40:14;9.20;99.90
44487;DHT22;30191;50.908;6.962;2023-04-15T03:42:40;9.30;99.90
44487;DHT22;30191;50.908;6.962;2023-04-15T03:45:05;9.20;99.90
44487;DHT22;30191;50.908;6.962;2023-04-15T03:47:32;9.10;99.90
44487;DHT22;30191;50.908;6.962;2023-04-15T03:49:57;9.10;99.90
44487;DHT22;30191;50.908;6.962;2023-04-15T03:52:23;9.10;99.90
44487;DHT22;30191;50.908;6.962;2023-04-15T03:54:48;9.00;99.90
44487;DHT22;30191;50.908;6.962;2023-04-15T03:57:14;9.00;99.90
44487;DHT22;30191;50.908;6.962;2023-04-15T03:59:39;8.90;99.90
44487;DHT22;30191;50.908;6.962;2023-04-15T04:02:05;8.90;99.90
44487;DHT22;30191;50.908;6.962;2023-04-15T04:04:31;8.80;99.90
44487;DHT22;30191;50.908;6.962;2023-04-15T04:06:56;8.80;99.90
44487;DHT22;30191;50.908;6.962;2023-04-15T04:09:22;8.70;99.90
44487;DHT22;30191;50.908;6.962;2023-04-15T04:11:47;8.70;99.90
44487;DHT22;30191;50.908;6.962;2023-04-15T04:14:13;8.70;99.90
44487;DHT22;30191;50.908;6.962;2023-04-15T04:16:38;8.60;99.90
44487;DHT22;30191;50.908;6.962;2023-04-15T04:19:04;8.60;99.90
44487;DHT22;30191;50.908;6.962;2023-04-15T04:21:29;8.50;99.90
44487;DHT22;30191;50.908;6.962;2023-04-15T04:23:55;8.50;99.90
44487;DHT22;30191;50.908;6.962;2023-04-15T04:26:21;8.50;99.90
44487;DHT22;30191;50.908;6.962;2023-04-15T04:28:47;8.50;99.90
44487;DHT22;30191;50.908;6.962;2023-04-15T04:31:12;8.60;99.90
44487;DHT22;30191;50.908;6.962;2023-04-15T04:33:38;8.60;99.90
44487;DHT22;30191;50.908;6.962;2023-04-15T04:36:03;8.60;99.90
44487;DHT22;30191;50.908;6.962;2023-04-15T04:38:29;8.50;99.90
44487;DHT22;30191;50.908;6.962;2023-04-15T04:40:55;8.60;99.90
44487;DHT22;30191;50.908;6.962;2023-04-15T04:43:20;8.70;99.90
44487;DHT22;30191;50.908;6.962;2023-04-15T04:45:46;8.70;99.90
44487;DHT22;30191;50.908;6.962;2023-04-15T04:48:11;8.80;99.90
44487;DHT22;30191;50.908;6.962;2023-04-15T04:50:37;8.80;99.90
44487;DHT22;30191;50.908;6.962;2023-04-15T04:53:03;8.70;99.90
44487;DHT22;30191;50.908;6.962;2023-04-15T04:55:28;8.70;99.90
44487;DHT22;30191;50.908;6.962;2023-04-15T04:57:54;8.70;99.90
44487;DHT22;30191;50.908;6.962;2023-04-15T05:00:20;8.60;99.90
44487;DHT22;30191;50.908;6.962;2023-04-15T05:02:45;8.60;99.90
44487;DHT22;30191;50.908;6.962;2023-04-15T05:05:11;8.60;99.90
44487;DHT22;30191;50.908;6.962;2023-04-15T05:07:37;8.70;99.90
44487;DHT22;30191;50.908;6.962;2023-04-15T05:10:04;8.70;99.90
44487;DHT22;30191;50.908;6.962;2023-04-15T05:12:29;8.70;99.90
44487;DHT22;30191;50.908;6.962;2023-04-15T05:14:55;8.60;99.90
44487;DHT22;30191;50.908;6.962;2023-04-15T05:17:21;8.60;99.90
44487;DHT22;30191;50.908;6.962;2023-04-15T05:19:46;8.50;99.90
44487;DHT22;30191;50.908;6.962;2023-04-15T05:22:12;8.50;99.90
44487;DHT22;30191;50.908;6.962;2023-04-15T05:24:37;8.40;99.90
44487;DHT22;30191;50.908;6.962;2023-04-15T05:27:03;8.50;99.90
44487;DHT22;30191;50.908;6.962;2023-04-15T05:29:29;8.50;99.90
44487;DHT22;30191;50.908;6.962;2023-04-15T05:31:54;8.40;99.90
44487;DHT22;30191;50.908;6.962;2023-04-15T05:34:20;8.50;99.90
44487;DHT22;30191;50.908;6.962;2023-04-15T05:36:46;8.50;99.90
44487;DHT22;30191;50.908;6.962;2023-04-15T05:39:14;8.40;99.90
44487;DHT22;30191;50.908;6.962;2023-04-15T05:41:39;8.30;99.90
44487;DHT22;30191;50.908;6.962;2023-04-15T05:44:05;8.40;99.90
44487;DHT22;30191;50.908;6.962;2023-04-15T05:46:30;8.40;99.90
44487;DHT22;30191;50.908;6.962;2023-04-15T05:48:56;8.60;99.90
44487;DHT22;30191;50.908;6.962;2023-04-15T05:51:21;8.70;99.90
44487;DHT22;30191;50.908;6.962;2023-04-15T05:53:47;8.70;99.90
44487;DHT22;30191;50.908;6.962;2023-04-15T05:56:12;8.60;99.90
44487;DHT22;30191;50.908;6.962;2023-04-15T05:58:38;8.70;99.90
44487;DHT22;30191;50.908;6.962;2023-04-15T06:01:03;8.80;99.90
44487;DHT22;30191;50.908;6.962;2023-04-15T06:03:29;8.90;99.90
44487;DHT22;30191;50.908;6.962;2023-04-15T06:05:55;8.90;99.90
44487;DHT22;30191;50.908;6.962;2023-04-15T06:08:21;9.10;99.90
44487;DHT22;30191;50.908;6.962;2023-04-15T06:10:46;9.10;99.90
44487;DHT22;30191;50.908;6.962;2023-04-15T06:13:12;9.10;99.90
44487;DHT22;30191;50.908;6.962;2023-04-15T06:15:37;9.20;99.90
44487;DHT22;30191;50.908;6.962;2023-04-15T06:18:03;9.10;99.90
44487;DHT22;30191;50.908;6.962;2023-04-15T06:20:28;9.10;99.90
44487;DHT22;30191;50.908;6.962;2023-04-15T06:22:54;9.20;99.90
44487;DHT22;30191;50.908;6.962;2023-04-15T06:25:19;9.30;99.90
44487;DHT22;30191;50.908;6.962;2023-04-15T06:27:45;9.20;99.90
44487;DHT22;30191;50.908;6.962;2023-04-15T06:30:11;9.30;99.90
44487;DHT22;30191;50.908;6.962;2023-04-15T06:32:37;9.40;99.90
44487;DHT22;30191;50.908;6.962;2023-04-15T06:35:02;9.40;99.90
44487;DHT22;30191;50.908;6.962;2023-04-15T06:37:28;9.40;99.90
44487;DHT22;30191;50.908;6.962;2023-04-15T06:39:54;9.50;99.90
44487;DHT22;30191;50.908;6.962;2023-04-15T06:42:19;9.60;99.90
44487;DHT22;30191;50.908;6.962;2023-04-15T06:44:45;9.60;99.90
44487;DHT22;30191;50.908;6.962;2023-04-15T06:47:10;9.70;99.90
44487;DHT22;30191;50.908;6.962;2023-04-15T06:49:39;9.80;99.90
44487;DHT22;30191;50.908;6.962;2023-04-15T06:52:04;9.80;99.90
44487;DHT22;30191;50.908;6.962;2023-04-15T06:54:30;9.80;99.90
44487;DHT22;30191;50.908;6.962;2023-04-15T06:56:56;9.90;99.90
44487;DHT22;30191;50.908;6.962;2023-04-15T06:59:21;10.10;99.90
44487;DHT22;30191;50.908;6.962;2023-04-15T07:01:47;10.20;99.90
44487;DHT22;30191;50.908;6.962;2023-04-15T07:04:12;10.20;99.90
44487;DHT22;30191;50.908;6.962;2023-04-15T07:06:38;10.20;99.90
44487;DHT22;30191;50.908;6.962;2023-04-15T07:09:03;10.40;99.90
44487;DHT22;30191;50.908;6.962;2023-04-15T07:11:29;10.50;99.90
44487;DHT22;30191;50.908;6.962;2023-04-15T07:13:56;10.60;99.90
44487;DHT22;30191;50.908;6.962;2023-04-15T07:16:21;10.70;99.90
44487;DHT22;30191;50.908;6.962;2023-04-15T07:18:47;10.70;99.90
44487;DHT22;30191;50.908;6.962;2023-04-15T07:21:12;10.90;99.90
44487;DHT22;30191;50.908;6.962;2023-04-15T07:23:38;11.00;99.90
44487;DHT22;30191;50.908;6.962;2023-04-15T07:26:04;11.10;99.90
44487;DHT22;30191;50.908;6.962;2023-04-15T07:28:29;11.30;99.90
44487;DHT22;30191;50.908;6.962;2023-04-15T07:30:55;11.30;99.90
44487;DHT22;30191;50.908;6.962;2023-04-15T07:33:24;11.40;99.90
44487;DHT22;30191;50.908;6.962;2023-04-15T07:35:49;11.40;99.90
44487;DHT22;30191;50.908;6.962;2023-04-15T07:38:15;11.50;99.90
44487;DHT22;30191;50.908;6.962;2023-04-15T07:40:41;11.60;99.90
44487;DHT22;30191;50.908;6.962;2023-04-15T07:43:06;11.70;99.90
44487;DHT22;30191;50.908;6.962;2023-04-15T07:45:33;11.80;99.90
44487;DHT22;30191;50.908;6.962;2023-04-15T07:47:58;11.90;99.90
44487;DHT22;30191;50.908;6.962;2023-04-15T07:50:24;11.90;99.90
44487;DHT22;30191;50.908;6.962;2023-04-15T07:52:52;12.00;99.90
44487;DHT22;30191;50.908;6.962;2023-04-15T07:55:21;12.10;99.90
44487;DHT22;30191;50.908;6.962;2023-04-15T07:57:47;12.20;99.90
44487;DHT22;30191;50.908;6.962;2023-04-15T08:00:13;12.30;99.90
44487;DHT22;30191;50.908;6.962;2023-04-15T08:02:39;12.30;99.90
44487;DHT22;30191;50.908;6.962;2023-04-15T08:05:04;12.40;99.90
44487;DHT22;30191;50.908;6.962;2023-04-15T08:07:31;12.30;99.90
44487;DHT22;30191;50.908;6.962;2023-04-15T08:09:57;12.40;99.90
44487;DHT22;30191;50.908;6.962;2023-04-15T08:12:23;12.50;99.90
44487;DHT22;30191;50.908;6.962;2023-04-15T08:14:49;12.60;99.90
44487;DHT22;30191;50.908;6.962;2023-04-15T08:17:15;12.70;99.90
44487;DHT22;30191;50.908;6.962;2023-04-15T08:19:41;12.70;99.90
44487;DHT22;30191;50.908;6.962;2023-04-15T08:22:07;12.80;99.90
44487;DHT22;30191;50.908;6.962;2023-04-15T08:24:32;12.80;99.90
44487;DHT22;30191;50.908;6.962;2023-04-15T08:26:58;12.90;99.90
44487;DHT22;30191;50.908;6.962;2023-04-15T08:29:24;12.90;99.90
44487;DHT22;30191;50.908;6.962;2023-04-15T08:31:49;13.00;99.90
44487;DHT22;30191;50.908;6.962;2023-04-15T08:34:15;13.00;99.90
44487;DHT22;30191;50.908;6.962;2023-04-15T08:36:41;13.10;99.90
44487;DHT22;30191;50.908;6.962;2023-04-15T08:39:06;13.10;99.90
44487;DHT22;30191;50.908;6.962;2023-04-15T08:42:18;13.40;99.90
44487;DHT22;30191;50.908;6.962;2023-04-15T08:44:18;13.50;99.90
44487;DHT22;30191;50.908;6.962;2023-04-15T08:46:45;13.80;99.90
44487;DHT22;30191;50.908;6.962;2023-04-15T08:49:11;13.70;99.90
44487;DHT22;30191;50.908;6.962;2023-04-15T08:51:38;13.70;99.90
44487;DHT22;30191;50.908;6.962;2023-04-15T08:54:04;13.70;99.90
44487;DHT22;30191;50.908;6.962;2023-04-15T08:56:30;13.60;99.90
44487;DHT22;30191;50.908;6.962;2023-04-15T08:58:57;13.60;99.90
44487;DHT22;30191;50.908;6.962;2023-04-15T09:01:23;13.50;99.90
44487;DHT22;30191;50.908;6.962;2023-04-15T09:03:49;13.50;99.90
44487;DHT22;30191;50.908;6.962;2023-04-15T09:06:15;13.50;99.90
44487;DHT22;30191;50.908;6.962;2023-04-15T09:08:41;13.40;99.90
44487;DHT22;30191;50.908;6.962;2023-04-15T09:11:06;13.40;99.90
44487;DHT22;30191;50.908;6.962;2023-04-15T09:13:32;13.40;99.90
44487;DHT22;30191;50.908;6.962;2023-04-15T09:16:00;13.40;99.90
44487;DHT22;30191;50.908;6.962;2023-04-15T09:18:26;13.50;99.90
44487;DHT22;30191;50.908;6.962;2023-04-15T09:20:53;13.50;99.90
44487;DHT22;30191;50.908;6.962;2023-04-15T09:23:18;13.50;99.90
44487;DHT22;30191;50.908;6.962;2023-04-15T09:25:44;13.60;99.70
44487;DHT22;30191;50.908;6.962;2023-04-15T09:28:09;13.60;99.90
44487;DHT22;30191;50.908;6.962;2023-04-15T09:30:35;13.70;99.90
44487;DHT22;30191;50.908;6.962;2023-04-15T09:33:01;13.70;99.90
44487;DHT22;30191;50.908;6.962;2023-04-15T09:35:29;13.70;99.90
44487;DHT22;30191;50.908;6.962;2023-04-15T09:38:01;13.70;99.90
44487;DHT22;30191;50.908;6.962;2023-04-15T09:40:31;13.70;99.90
44487;DHT22;30191;50.908;6.962;2023-04-15T09:43:00;13.70;99.90
44487;DHT22;30191;50.908;6.962;2023-04-15T09:45:26;13.70;99.90
44487;DHT22;30191;50.908;6.962;2023-04-15T09:47:52;13.70;99.90
44487;DHT22;30191;50.908;6.962;2023-04-15T09:50:18;13.80;99.90
44487;DHT22;30191;50.908;6.962;2023-04-15T09:52:44;13.80;99.90
44487;DHT22;30191;50.908;6.962;2023-04-15T09:55:10;13.90;99.90
44487;DHT22;30191;50.908;6.962;2023-04-15T09:57:36;13.90;99.90
44487;DHT22;30191;50.908;6.962;2023-04-15T10:00:05;13.90;99.90
44487;DHT22;30191;50.908;6.962;2023-04-15T10:02:32;13.90;99.90
44487;DHT22;30191;50.908;6.962;2023-04-15T10:04:58;13.80;99.90
44487;DHT22;30191;50.908;6.962;2023-04-15T10:07:24;13.70;99.90
44487;DHT22;30191;50.908;6.962;2023-04-15T10:09:49;13.70;99.90
44487;DHT22;30191;50.908;6.962;2023-04-15T10:12:16;13.80;99.90
44487;DHT22;30191;50.908;6.962;2023-04-15T10:14:42;13.80;99.90
44487;DHT22;30191;50.908;6.962;2023-04-15T10:17:09;13.80;99.90
44487;DHT22;30191;50.908;6.962;2023-04-15T10:19:36;13.80;99.90
44487;DHT22;30191;50.908;6.962;2023-04-15T10:22:02;13.70;99.90
44487;DHT22;30191;50.908;6.962;2023-04-15T10:24:29;13.60;99.90
44487;DHT22;30191;50.908;6.962;2023-04-15T10:26:56;13.70;99.90
44487;DHT22;30191;50.908;6.962;2023-04-15T10:29:23;13.80;99.90
44487;DHT22;30191;50.908;6.962;2023-04-15T10:31:50;13.80;99.90
44487;DHT22;30191;50.908;6.962;2023-04-15T10:34:16;13.80;99.90
44487;DHT22;30191;50.908;6.962;2023-04-15T10:36:42;13.80;99.90
44487;DHT22;30191;50.908;6.962;2023-04-15T10:42:08;13.70;99.90
44487;DHT22;30191;50.908;6.962;2023-04-15T10:44:34;13.60;99.90
44487;DHT22;30191;50.908;6.962;2023-04-15T10:47:03;13.50;99.90
44487;DHT22;30191;50.908;6.962;2023-04-15T10:49:29;13.50;99.90
44487;DHT22;30191;50.908;6.962;2023-04-15T10:51:58;13.70;99.90
44487;DHT22;30191;50.908;6.962;2023-04-15T10:59:36;13.90;99.90
44487;DHT22;30191;50.908;6.962;2023-04-15T11:02:03;13.90;99.90
44487;DHT22;30191;50.908;6.962;2023-04-15T11:07:13;13.90;99.90
44487;DHT22;30191;50.908;6.962;2023-04-15T11:09:38;13.90;99.90
44487;DHT22;30191;50.908;6.962;2023-04-15T11:14:36;14.10;99.90
44487;DHT22;30191;50.908;6.962;2023-04-15T11:17:03;14.30;99.90
44487;DHT22;30191;50.908;6.962;2023-04-15T11:19:35;14.40;99.90
44487;DHT22;30191;50.908;6.962;2023-04-15T11:22:08;14.30;99.90
44487;DHT22;30191;50.908;6.962;2023-04-15T11:24:35;14.50;99.90
44487;DHT22;30191;50.908;6.962;2023-04-15T11:27:00;14.60;99.90
44487;DHT22;30191;50.908;6.962;2023-04-15T11:29:31;14.60;99.90
44487;DHT22;30191;50.908;6.962;2023-04-15T11:32:09;14.70;99.90
44487;DHT22;30191;50.908;6.962;2023-04-15T11:34:35;14.70;99.90
44487;DHT22;30191;50.908;6.962;2023-04-15T11:37:04;14.60;99.90
44487;DHT22;30191;50.908;6.962;2023-04-15T11:39:30;14.60;99.90
44487;DHT22;30191;50.908;6.962;2023-04-15T11:41:56;14.50;99.90
44487;DHT22;30191;50.908;6.962;2023-04-15T11:44:22;14.40;99.90
44487;DHT22;30191;50.908;6.962;2023-04-15T11:46:47;14.30;99.90
44487;DHT22;30191;50.908;6.962;2023-04-15T11:49:27;14.30;99.90
44487;DHT22;30191;50.908;6.962;2023-04-15T11:51:53;14.30;99.90
44487;DHT22;30191;50.908;6.962;2023-04-15T11:54:19;14.30;99.90
44487;DHT22;30191;50.908;6.962;2023-04-15T11:56:49;14.40;99.90
44487;DHT22;30191;50.908;6.962;2023-04-15T11:59:14;14.20;99.90
44487;DHT22;30191;50.908;6.962;2023-04-15T12:01:40;14.00;99.90
44487;DHT22;30191;50.908;6.962;2023-04-15T12:04:11;13.80;99.90
44487;DHT22;30191;50.908;6.962;2023-04-15T12:06:37;13.70;99.90
44487;DHT22;30191;50.908;6.962;2023-04-15T12:09:06;13.60;99.90
44487;DHT22;30191;50.908;6.962;2023-04-15T12:16:32;13.50;99.90
44487;DHT22;30191;50.908;6.962;2023-04-15T12:18:59;13.50;99.90
44487;DHT22;30191;50.908;6.962;2023-04-15T12:21:25;13.60;99.90
44487;DHT22;30191;50.908;6.962;2023-04-15T12:23:52;13.60;99.90
44487;DHT22;30191;50.908;6.962;2023-04-15T12:26:17;13.60;99.90
44487;DHT22;30191;50.908;6.962;2023-04-15T12:28:52;13.50;99.90
44487;DHT22;30191;50.908;6.962;2023-04-15T12:31:18;13.50;99.90
44487;DHT22;30191;50.908;6.962;2023-04-15T12:33:46;13.50;99.90
44487;DHT22;30191;50.908;6.962;2023-04-15T12:36:12;13.40;99.90
44487;DHT22;30191;50.908;6.962;2023-04-15T12:38:38;13.40;99.90
44487;DHT22;30191;50.908;6.962;2023-04-15T12:41:03;13.50;99.90
44487;DHT22;30191;50.908;6.962;2023-04-15T12:43:29;13.50;99.90
44487;DHT22;30191;50.908;6.962;2023-04-15T12:45:54;13.40;99.90
44487;DHT22;30191;50.908;6.962;2023-04-15T12:48:20;13.40;99.90
44487;DHT22;30191;50.908;6.962;2023-04-15T12:50:46;13.40;99.90
44487;DHT22;30191;50.908;6.962;2023-04-15T12:53:11;13.40;99.90
44487;DHT22;30191;50.908;6.962;2023-04-15T12:55:37;13.50;99.90
44487;DHT22;30191;50.908;6.962;2023-04-15T12:58:02;13.50;99.90
44487;DHT22;30191;50.908;6.962;2023-04-15T13:00:28;13.50;99.90
44487;DHT22;30191;50.908;6.962;2023-04-15T13:02:54;13.40;99.90
44487;DHT22;30191;50.908;6.962;2023-04-15T13:05:19;13.40;99.90
44487;DHT22;30191;50.908;6.962;2023-04-15T13:07:45;13.30;99.90
44487;DHT22;30191;50.908;6.962;2023-04-15T13:10:11;13.30;99.90
44487;DHT22;30191;50.908;6.962;2023-04-15T13:12:36;13.20;99.90
44487;DHT22;30191;50.908;6.962;2023-04-15T13:15:02;13.10;99.90
44487;DHT22;30191;50.908;6.962;2023-04-15T13:17:28;13.10;99.90
44487;DHT22;30191;50.908;6.962;2023-04-15T13:19:54;13.10;99.90
44487;DHT22;30191;50.908;6.962;2023-04-15T13:22:20;13.10;99.90
44487;DHT22;30191;50.908;6.962;2023-04-15T13:24:45;13.00;99.90
44487;DHT22;30191;50.908;6.962;2023-04-15T13:27:11;13.00;99.90
44487;DHT22;30191;50.908;6.962;2023-04-15T13:29:36;12.90;99.90
44487;DHT22;30191;50.908;6.962;2023-04-15T13:32:03;12.90;99.90
44487;DHT22;30191;50.908;6.962;2023-04-15T13:34:28;12.80;99.90
44487;DHT22;30191;50.908;6.962;2023-04-15T13:36:54;12.70;99.90
44487;DHT22;30191;50.908;6.962;2023-04-15T13:39:19;12.70;99.90
44487;DHT22;30191;50.908;6.962;2023-04-15T13:41:45;12.70;99.90
44487;DHT22;30191;50.908;6.962;2023-04-15T13:44:12;12.60;99.90
44487;DHT22;30191;50.908;6.962;2023-04-15T13:46:39;12.60;99.90
44487;DHT22;30191;50.908;6.962;2023-04-15T13:49:06;12.60;99.90
44487;DHT22;30191;50.908;6.962;2023-04-15T13:51:31;12.60;99.90
44487;DHT22;30191;50.908;6.962;2023-04-15T13:53:57;12.60;99.90
44487;DHT22;30191;50.908;6.962;2023-04-15T13:56:23;12.50;99.90
44487;DHT22;30191;50.908;6.962;2023-04-15T13:58:48;12.60;99.90
44487;DHT22;30191;50.908;6.962;2023-04-15T14:01:14;12.50;99.90
44487;DHT22;30191;50.908;6.962;2023-04-15T14:03:39;12.50;99.90
44487;DHT22;30191;50.908;6.962;2023-04-15T14:06:05;12.50;99.90
44487;DHT22;30191;50.908;6.962;2023-04-15T14:08:31;12.50;99.90
44487;DHT22;30191;50.908;6.962;2023-04-15T14:10:56;12.50;99.90
44487;DHT22;30191;50.908;6.962;2023-04-15T14:13:22;12.50;99.90
44487;DHT22;30191;50.908;6.962;2023-04-15T14:15:48;12.50;99.90
44487;DHT22;30191;50.908;6.962;2023-04-15T14:18:13;12.40;99.90
44487;DHT22;30191;50.908;6.962;2023-04-15T14:20:39;12.50;99.90
44487;DHT22;30191;50.908;6.962;2023-04-15T14:23:04;12.40;99.90
44487;DHT22;30191;50.908;6.962;2023-04-15T14:25:30;12.40;99.90
44487;DHT22;30191;50.908;6.962;2023-04-15T14:27:55;12.30;99.90
44487;DHT22;30191;50.908;6.962;2023-04-15T14:30:21;12.40;99.90
44487;DHT22;30191;50.908;6.962;2023-04-15T14:32:46;12.30;99.90
44487;DHT22;30191;50.908;6.962;2023-04-15T14:35:12;12.30;99.90
44487;DHT22;30191;50.908;6.962;2023-04-15T14:37:37;12.30;99.90
44487;DHT22;30191;50.908;6.962;2023-04-15T14:40:03;12.40;99.90
44487;DHT22;30191;50.908;6.962;2023-04-15T14:42:29;12.50;99.90
44487;DHT22;30191;50.908;6.962;2023-04-15T14:44:54;12.40;99.90
44487;DHT22;30191;50.908;6.962;2023-04-15T14:47:20;12.40;99.90
44487;DHT22;30191;50.908;6.962;2023-04-15T14:49:45;12.40;99.90
44487;DHT22;30191;50.908;6.962;2023-04-15T14:52:11;12.30;99.90
44487;DHT22;30191;50.908;6.962;2023-04-15T14:54:36;12.20;99.90
44487;DHT22;30191;50.908;6.962;2023-04-15T14:57:02;12.10;99.90
44487;DHT22;30191;50.908;6.962;2023-04-15T14:59:27;12.10;99.90
44487;DHT22;30191;50.908;6.962;2023-04-15T15:01:53;12.10;99.90
44487;DHT22;30191;50.908;6.962;2023-04-15T15:04:18;12.00;99.90
44487;DHT22;30191;50.908;6.962;2023-04-15T15:06:44;12.10;99.90
44487;DHT22;30191;50.908;6.962;2023-04-15T15:09:09;12.10;99.90
44487;DHT22;30191;50.908;6.962;2023-04-15T15:11:35;12.20;99.90
44487;DHT22;30191;50.908;6.962;2023-04-15T15:14:01;12.50;99.90
44487;DHT22;30191;50.908;6.962;2023-04-15T15:16:26;12.50;99.90
44487;DHT22;30191;50.908;6.962;2023-04-15T15:18:52;12.60;99.90
44487;DHT22;30191;50.908;6.962;2023-04-15T15:21:17;12.50;99.90
44487;DHT22;30191;50.908;6.962;2023-04-15T15:23:43;12.50;99.90
44487;DHT22;30191;50.908;6.962;2023-04-15T15:26:10;12.40;99.90
44487;DHT22;30191;50.908;6.962;2023-04-15T15:28:36;12.30;99.90
44487;DHT22;30191;50.908;6.962;2023-04-15T15:31:01;12.20;99.90
44487;DHT22;30191;50.908;6.962;2023-04-15T15:33:27;12.10;99.90
44487;DHT22;30191;50.908;6.962;2023-04-15T15:35:52;12.10;99.90
44487;DHT22;30191;50.908;6.962;2023-04-15T15:38:18;12.00;99.90
44487;DHT22;30191;50.908;6.962;2023-04-15T15:40:43;11.90;99.90
44487;DHT22;30191;50.908;6.962;2023-04-15T15:43:09;11.90;99.90
44487;DHT22;30191;50.908;6.962;2023-04-15T15:45:34;11.90;99.90
44487;DHT22;30191;50.908;6.962;2023-04-15T15:48:00;11.90;99.90